createdAt,value
2019-05-23T00:00:01.055Z,12.03
2019-05-23T00:02:41.867Z,12.90
2019-05-23T00:05:15.152Z,12.63
2019-05-23T00:07:45.836Z,13.10
2019-05-23T00:10:22.647Z,12.67
2019-05-23T00:13:01.938Z,12.70
2019-05-23T00:15:37.782Z,12.70
2019-05-23T00:18:06.916Z,12.87
2019-05-23T00:20:36.386Z,13.93
2019-05-23T00:23:06.868Z,12.70
2019-05-23T00:25:36.625Z,12.90
2019-05-23T00:28:07.058Z,13.40
2019-05-23T00:30:44.993Z,13.80
2019-05-23T00:33:18.028Z,13.17
2019-05-23T00:35:47.781Z,12.23
2019-05-23T00:38:17.087Z,13.60
2019-05-23T00:40:46.391Z,13.83
2019-05-23T00:43:15.390Z,14.43
2019-05-23T00:45:44.864Z,13.80
2019-05-23T00:48:15.713Z,13.70
2019-05-23T00:50:44.888Z,13.40
2019-05-23T00:53:14.368Z,14.63
2019-05-23T00:55:44.766Z,13.63
2019-05-23T00:58:14.929Z,13.10
2019-05-23T01:00:43.956Z,11.97
2019-05-23T01:03:14.563Z,13.57
2019-05-23T01:05:43.805Z,13.47
2019-05-23T01:08:13.741Z,12.20
2019-05-23T01:10:43.984Z,13.17
2019-05-23T01:13:15.409Z,13.20
2019-05-23T01:15:45.809Z,12.80
2019-05-23T01:18:15.446Z,12.50
2019-05-23T01:21:09.778Z,12.13
2019-05-23T01:23:41.059Z,12.50
2019-05-23T01:26:12.294Z,12.43
2019-05-23T01:28:42.548Z,15.20
2019-05-23T01:31:18.477Z,13.20
2019-05-23T01:33:48.214Z,14.60
2019-05-23T01:36:17.635Z,13.70
2019-05-23T01:38:46.783Z,14.90
2019-05-23T01:41:16.134Z,14.70
2019-05-23T01:43:45.484Z,14.60
2019-05-23T01:46:14.858Z,15.77
2019-05-23T01:48:44.002Z,14.70
2019-05-23T01:51:20.933Z,14.60
2019-05-23T01:53:50.728Z,14.50
2019-05-23T01:56:20.018Z,13.67
2019-05-23T01:58:49.636Z,13.37
2019-05-23T02:01:18.740Z,12.90
2019-05-23T02:03:48.208Z,13.77
2019-05-23T02:06:17.637Z,14.27
2019-05-23T02:08:46.789Z,14.40
2019-05-23T02:11:16.313Z,13.10
2019-05-23T02:13:45.424Z,14.37
2019-05-23T02:16:14.648Z,12.83
2019-05-23T02:18:45.790Z,14.43
2019-05-23T02:21:16.311Z,14.03
2019-05-23T02:23:54.739Z,14.63
2019-05-23T02:26:24.350Z,13.50
2019-05-23T02:28:54.231Z,14.00
2019-05-23T02:31:23.335Z,13.13
2019-05-23T02:33:52.604Z,12.73
2019-05-23T02:36:22.760Z,13.50
2019-05-23T02:39:11.865Z,14.10
2019-05-23T02:41:50.311Z,12.70
2019-05-23T02:44:22.426Z,13.17
2019-05-23T02:46:59.807Z,14.53
2019-05-23T02:49:31.343Z,14.53
2019-05-23T02:52:05.752Z,14.27
2019-05-23T02:54:37.485Z,13.20
2019-05-23T02:57:07.656Z,14.17
2019-05-23T02:59:46.342Z,13.37
2019-05-23T03:02:46.972Z,13.57
2019-05-23T03:05:17.814Z,11.90
2019-05-23T03:07:46.939Z,14.53
2019-05-23T03:10:19.380Z,13.70
2019-05-23T03:12:49.532Z,13.27
2019-05-23T03:15:19.283Z,13.00
2019-05-23T03:17:51.656Z,14.07
2019-05-23T03:20:21.478Z,13.90
2019-05-23T03:22:54.570Z,12.70
2019-05-23T03:26:05.653Z,13.23
2019-05-23T03:28:40.154Z,13.70
2019-05-23T03:31:28.486Z,15.57
2019-05-23T03:33:44.337Z,14.10
2019-05-23T03:36:14.228Z,13.17
2019-05-23T03:38:43.336Z,13.43
2019-05-23T03:41:12.429Z,14.30
2019-05-23T03:43:42.507Z,13.60
2019-05-23T03:46:13.495Z,14.40
2019-05-23T03:48:42.521Z,13.17
2019-05-23T03:51:12.152Z,14.60
2019-05-23T03:53:42.366Z,14.47
2019-05-23T03:56:11.385Z,13.30
2019-05-23T03:58:40.942Z,13.03
2019-05-23T04:01:12.511Z,13.43
2019-05-23T04:03:42.691Z,12.93
2019-05-23T04:06:11.977Z,14.00
2019-05-23T04:08:41.548Z,13.93
2019-05-23T04:11:11.605Z,13.83
2019-05-23T04:13:40.757Z,14.07
2019-05-23T04:16:10.728Z,13.77
2019-05-23T04:18:39.723Z,13.53
2019-05-23T04:21:09.243Z,14.23
2019-05-23T04:23:38.438Z,14.10
2019-05-23T04:26:07.663Z,13.90
2019-05-23T04:28:36.868Z,13.50
2019-05-23T04:31:06.021Z,11.70
2019-05-23T04:33:35.583Z,11.80
2019-05-23T04:36:06.149Z,11.80
2019-05-23T04:38:36.602Z,13.33
2019-05-23T04:41:05.917Z,12.60
2019-05-23T04:43:35.117Z,12.87
2019-05-23T04:46:04.666Z,12.07
2019-05-23T04:48:33.738Z,12.97
2019-05-23T04:51:03.019Z,12.20
2019-05-23T04:53:33.058Z,11.50
2019-05-23T04:56:08.736Z,11.30
2019-05-23T04:58:38.307Z,11.33
2019-05-23T05:01:08.888Z,12.07
2019-05-23T05:03:38.115Z,13.10
2019-05-23T05:06:07.950Z,11.83
2019-05-23T05:08:37.057Z,12.33
2019-05-23T05:11:06.378Z,11.73
2019-05-23T05:13:36.265Z,11.90
2019-05-23T05:16:05.445Z,11.17
2019-05-23T05:18:35.725Z,11.13
2019-05-23T05:21:05.996Z,11.40
2019-05-23T05:23:35.260Z,11.50
2019-05-23T05:26:04.507Z,11.60
2019-05-23T05:28:33.759Z,10.10
2019-05-23T05:31:03.452Z,11.50
2019-05-23T05:33:32.831Z,11.17
2019-05-23T05:36:01.880Z,10.70
2019-05-23T05:38:31.353Z,9.67
2019-05-23T05:41:00.468Z,10.30
2019-05-23T05:43:29.595Z,9.73
2019-05-23T05:45:58.622Z,9.90
2019-05-23T05:48:28.086Z,9.33
2019-05-23T05:50:57.541Z,12.43
2019-05-23T05:53:26.548Z,10.50
2019-05-23T05:55:55.602Z,10.13
2019-05-23T05:58:24.678Z,9.60
2019-05-23T06:01:04.068Z,11.07
2019-05-23T06:03:33.331Z,10.40
2019-05-23T06:06:27.677Z,9.67
2019-05-23T06:08:58.949Z,9.37
2019-05-23T06:11:28.780Z,10.07
2019-05-23T06:13:57.732Z,9.57
2019-05-23T06:16:27.206Z,8.67
2019-05-23T06:18:56.857Z,9.00
2019-05-23T06:21:28.729Z,9.13
2019-05-23T06:23:57.793Z,9.87
2019-05-23T06:26:26.805Z,9.87
2019-05-23T06:28:55.879Z,10.40
2019-05-23T06:31:25.595Z,10.50
2019-05-23T06:33:55.557Z,10.77
2019-05-23T06:36:24.661Z,10.00
2019-05-23T06:38:55.399Z,9.40
2019-05-23T06:41:26.570Z,11.53
2019-05-23T06:43:55.777Z,10.37
2019-05-23T06:46:24.880Z,10.33
2019-05-23T06:48:53.872Z,9.30
2019-05-23T06:51:22.876Z,9.60
2019-05-23T06:53:52.546Z,9.17
2019-05-23T06:56:21.763Z,11.00
2019-05-23T06:58:50.745Z,10.40
2019-05-23T07:01:19.774Z,10.60
2019-05-23T07:03:48.878Z,9.00
2019-05-23T07:06:20.358Z,9.77
2019-05-23T07:08:49.896Z,10.77
2019-05-23T07:11:19.071Z,9.50
2019-05-23T07:13:48.242Z,9.57
2019-05-23T07:16:17.337Z,9.47
2019-05-23T07:18:46.452Z,9.17
2019-05-23T07:21:15.676Z,9.43
2019-05-23T07:23:44.867Z,9.13
2019-05-23T07:26:14.299Z,9.40
2019-05-23T07:28:43.594Z,8.60
2019-05-23T07:31:13.374Z,8.57
2019-05-23T07:34:00.352Z,8.13
2019-05-23T07:36:13.306Z,9.50
2019-05-23T07:38:42.525Z,8.60
2019-05-23T07:41:11.448Z,8.50
2019-05-23T07:43:40.482Z,7.93
2019-05-23T07:46:09.726Z,8.97
2019-05-23T07:48:38.700Z,8.93
2019-05-23T07:51:07.592Z,6.97
2019-05-23T07:53:55.787Z,8.43
2019-05-23T07:56:26.436Z,7.50
2019-05-23T07:58:55.420Z,9.00
2019-05-23T08:01:26.911Z,7.97
2019-05-23T08:03:56.966Z,7.13
2019-05-23T08:06:26.129Z,7.23
2019-05-23T08:08:55.384Z,6.80
2019-05-23T08:11:24.600Z,7.40
2019-05-23T08:13:53.856Z,7.30
2019-05-23T08:16:23.534Z,7.50
2019-05-23T08:18:52.610Z,6.80
2019-05-23T08:21:21.895Z,6.60
2019-05-23T08:23:50.992Z,6.80
2019-05-23T08:26:21.562Z,5.87
2019-05-23T08:29:12.254Z,6.67
2019-05-23T08:31:22.067Z,6.90
2019-05-23T08:33:51.676Z,6.70
2019-05-23T08:36:20.680Z,6.40
2019-05-23T08:38:49.744Z,7.50
2019-05-23T08:41:18.846Z,9.50
2019-05-23T08:43:47.854Z,7.70
2019-05-23T08:46:17.520Z,7.80
2019-05-23T08:48:46.522Z,8.27
2019-05-23T08:51:15.978Z,8.00
2019-05-23T08:53:45.003Z,8.77
2019-05-23T08:56:18.761Z,9.73
2019-05-23T08:58:44.806Z,8.17
2019-05-23T09:01:15.355Z,9.10
2019-05-23T09:03:44.547Z,9.73
2019-05-23T09:06:14.732Z,9.13
2019-05-23T09:08:44.230Z,9.70
2019-05-23T09:11:13.834Z,8.93
2019-05-23T09:13:42.819Z,11.50
2019-05-23T09:16:11.940Z,11.57
2019-05-23T09:18:41.089Z,11.33
2019-05-23T09:21:10.580Z,10.87
2019-05-23T09:23:39.736Z,12.10
2019-05-23T09:26:08.930Z,12.33
2019-05-23T09:28:38.899Z,12.13
2019-05-23T09:31:08.272Z,10.70
2019-05-23T09:33:37.340Z,11.90
2019-05-23T09:36:06.417Z,13.97
2019-05-23T09:38:35.473Z,13.10
2019-05-23T09:41:04.596Z,14.10
2019-05-23T09:43:33.783Z,14.67
2019-05-23T09:46:02.888Z,16.20
2019-05-23T09:48:31.974Z,14.43
2019-05-23T09:51:01.082Z,15.07
2019-05-23T09:53:30.174Z,13.60
2019-05-23T09:55:59.251Z,13.30
2019-05-23T09:58:28.427Z,12.40
2019-05-23T10:00:57.483Z,12.60
2019-05-23T10:03:26.781Z,10.63
2019-05-23T10:05:55.976Z,11.33
2019-05-23T10:08:25.094Z,12.10
2019-05-23T10:10:54.177Z,10.47
2019-05-23T10:13:37.867Z,13.37
2019-05-23T10:16:02.866Z,11.23
2019-05-23T10:18:32.180Z,14.60
2019-05-23T10:21:01.296Z,13.60
2019-05-23T10:23:30.431Z,12.73
2019-05-23T10:25:59.617Z,13.63
2019-05-23T10:28:28.644Z,13.03
2019-05-23T10:30:57.856Z,11.17
2019-05-23T10:33:27.078Z,11.20
2019-05-23T10:36:00.470Z,10.40
2019-05-23T10:38:29.265Z,11.40
2019-05-23T10:40:57.709Z,10.83
2019-05-23T10:43:26.747Z,10.70
2019-05-23T10:45:55.872Z,10.63
2019-05-23T10:48:26.040Z,10.27
2019-05-23T10:50:55.505Z,10.10
2019-05-23T10:53:24.738Z,10.40
2019-05-23T10:55:54.179Z,9.57
2019-05-23T10:58:23.324Z,10.60
2019-05-23T11:00:52.504Z,9.83
2019-05-23T11:03:22.170Z,9.57
2019-05-23T11:05:51.247Z,9.10
2019-05-23T11:08:20.923Z,9.20
2019-05-23T11:10:50.230Z,10.23
2019-05-23T11:13:19.347Z,9.20
2019-05-23T11:15:48.610Z,8.40
2019-05-23T11:18:17.939Z,8.57
2019-05-23T11:20:47.167Z,10.00
2019-05-23T11:23:20.329Z,9.50
2019-05-23T11:25:49.374Z,9.70
2019-05-23T11:28:18.455Z,9.47
2019-05-23T11:30:51.395Z,9.23
2019-05-23T11:33:21.734Z,8.40
2019-05-23T11:35:51.296Z,7.73
2019-05-23T11:38:20.964Z,9.07
2019-05-23T11:40:50.432Z,8.47
2019-05-23T11:43:19.343Z,7.70
2019-05-23T11:45:51.921Z,7.57
2019-05-23T11:48:21.116Z,9.87
2019-05-23T11:50:50.089Z,7.10
2019-05-23T11:53:19.213Z,8.40
2019-05-23T11:55:53.254Z,7.60
2019-05-23T11:58:19.038Z,8.20
2019-05-23T12:01:32.529Z,7.27
2019-05-23T12:04:21.269Z,6.73
2019-05-23T12:06:59.846Z,6.50
2019-05-23T12:09:29.103Z,7.47
2019-05-23T12:11:58.160Z,7.20
2019-05-23T12:14:27.269Z,6.30
2019-05-23T12:16:56.983Z,6.50
2019-05-23T12:19:26.114Z,7.00
2019-05-23T12:21:55.294Z,7.10
2019-05-23T12:24:24.398Z,6.17
2019-05-23T12:26:53.503Z,6.77
2019-05-23T12:29:22.544Z,7.00
2019-05-23T12:31:51.772Z,6.00
2019-05-23T12:34:20.755Z,6.97
2019-05-23T12:36:49.823Z,6.63
2019-05-23T12:39:18.878Z,6.70
2019-05-23T12:41:47.939Z,7.30
2019-05-23T12:44:17.939Z,7.20
2019-05-23T12:46:47.227Z,7.20
2019-05-23T12:49:33.131Z,7.40
2019-05-23T12:52:02.468Z,7.23
2019-05-23T12:54:32.556Z,7.53
2019-05-23T12:57:01.721Z,7.40
2019-05-23T12:59:31.053Z,6.50
2019-05-23T13:02:01.463Z,6.43
2019-05-23T13:04:30.642Z,6.37
2019-05-23T13:06:59.702Z,6.20
2019-05-23T13:09:28.876Z,5.63
2019-05-23T13:11:57.982Z,5.27
2019-05-23T13:14:27.115Z,5.83
2019-05-23T13:17:00.806Z,5.13
2019-05-23T13:19:27.890Z,4.97
2019-05-23T13:21:57.070Z,4.83
2019-05-23T13:24:26.261Z,4.93
2019-05-23T13:26:55.319Z,4.40
2019-05-23T13:29:25.012Z,6.30
2019-05-23T13:31:54.766Z,5.50
2019-05-23T13:34:24.000Z,6.07
2019-05-23T13:36:53.523Z,6.20
2019-05-23T13:39:22.656Z,5.27
2019-05-23T13:41:51.795Z,5.40
2019-05-23T13:44:33.078Z,6.50
2019-05-23T13:46:51.701Z,5.20
2019-05-23T13:49:20.614Z,5.80
2019-05-23T13:51:49.781Z,5.50
2019-05-23T13:54:18.984Z,6.33
2019-05-23T13:56:48.865Z,5.50
2019-05-23T13:59:17.981Z,5.90
2019-05-23T14:01:47.030Z,5.73
2019-05-23T14:04:16.298Z,6.20
2019-05-23T14:06:45.383Z,5.40
2019-05-23T14:09:15.170Z,5.40
2019-05-23T14:11:44.312Z,6.40
2019-05-23T14:14:13.421Z,5.57
2019-05-23T14:16:52.144Z,6.60
2019-05-23T14:19:21.205Z,6.67
2019-05-23T14:21:50.238Z,6.10
2019-05-23T14:24:19.274Z,5.40
2019-05-23T14:26:55.327Z,6.23
2019-05-23T14:29:24.404Z,6.07
2019-05-23T14:32:01.635Z,6.20
2019-05-23T14:34:30.818Z,5.77
2019-05-23T14:37:17.323Z,5.77
2019-05-23T14:39:49.392Z,5.77
2019-05-23T14:42:35.670Z,5.87
2019-05-23T14:45:06.559Z,5.50
2019-05-23T14:47:43.285Z,5.50
2019-05-23T14:50:25.920Z,5.27
2019-05-23T14:52:55.536Z,5.60
2019-05-23T14:55:24.641Z,6.47
2019-05-23T14:57:53.800Z,5.90
2019-05-23T15:00:25.048Z,5.40
2019-05-23T15:02:54.209Z,6.70
2019-05-23T15:05:23.327Z,5.30
2019-05-23T15:07:52.391Z,4.97
2019-05-23T15:10:21.713Z,4.67
2019-05-23T15:12:50.765Z,5.20
2019-05-23T15:15:20.109Z,5.10
2019-05-23T15:17:49.272Z,5.70
2019-05-23T15:20:18.250Z,5.50
2019-05-23T15:22:47.346Z,4.83
2019-05-23T15:25:16.603Z,4.63
2019-05-23T15:27:45.661Z,4.97
2019-05-23T15:30:14.722Z,5.10
2019-05-23T15:32:43.794Z,5.50
2019-05-23T15:35:12.993Z,5.63
2019-05-23T15:37:42.015Z,4.80
2019-05-23T15:40:11.157Z,5.57
2019-05-23T15:42:40.243Z,5.73
2019-05-23T15:45:09.400Z,5.50
2019-05-23T15:47:38.779Z,5.30
2019-05-23T15:50:11.420Z,5.10
2019-05-23T15:52:46.898Z,5.30
2019-05-23T15:55:39.544Z,5.90
2019-05-23T15:58:12.763Z,5.80
2019-05-23T16:00:59.243Z,5.83
2019-05-23T16:03:38.422Z,6.07
2019-05-23T16:06:09.121Z,6.20
2019-05-23T16:08:38.194Z,5.63
2019-05-23T16:11:07.277Z,5.80
2019-05-23T16:13:36.160Z,5.60
2019-05-23T16:16:05.171Z,5.67
2019-05-23T16:18:34.550Z,5.27
2019-05-23T16:21:03.603Z,5.10
2019-05-23T16:23:33.426Z,4.83
2019-05-23T16:26:02.620Z,5.33
2019-05-23T16:28:35.226Z,5.40
2019-05-23T16:31:13.335Z,5.13
2019-05-23T16:33:42.558Z,4.97
2019-05-23T16:36:11.868Z,5.37
2019-05-23T16:38:41.069Z,5.47
2019-05-23T16:41:11.590Z,4.77
2019-05-23T16:43:40.934Z,5.10
2019-05-23T16:46:09.937Z,5.10
2019-05-23T16:48:38.947Z,5.60
2019-05-23T16:51:07.981Z,4.63
2019-05-23T16:53:37.169Z,5.17
2019-05-23T16:56:10.894Z,5.33
2019-05-23T16:59:10.879Z,4.50
2019-05-23T17:02:05.570Z,4.93
2019-05-23T17:05:08.481Z,5.10
2019-05-23T17:07:43.862Z,4.73
2019-05-23T17:10:20.788Z,4.60
2019-05-23T17:13:14.681Z,5.20
2019-05-23T17:15:58.287Z,5.37
2019-05-23T17:18:55.185Z,5.07
2019-05-23T17:21:41.383Z,5.50
2019-05-23T17:24:27.677Z,5.17
2019-05-23T17:27:04.578Z,5.07
2019-05-23T17:29:52.281Z,5.00
2019-05-23T17:32:25.467Z,5.10
2019-05-23T17:34:57.932Z,5.03
2019-05-23T17:37:27.343Z,5.90
2019-05-23T17:39:56.475Z,6.00
2019-05-23T17:42:34.500Z,5.70
2019-05-23T17:45:13.878Z,5.30
2019-05-23T17:47:40.498Z,5.50
2019-05-23T17:50:09.769Z,5.40
2019-05-23T17:52:38.767Z,5.97
2019-05-23T17:55:19.995Z,5.70
2019-05-23T17:57:49.426Z,6.00
2019-05-23T18:00:23.444Z,7.77
2019-05-23T18:02:52.614Z,6.53
2019-05-23T18:05:22.111Z,5.70
2019-05-23T18:07:51.168Z,5.90
2019-05-23T18:10:21.295Z,4.97
2019-05-23T18:12:50.428Z,5.57
2019-05-23T18:15:19.585Z,5.60
2019-05-23T18:17:49.510Z,5.70
2019-05-23T18:20:18.727Z,4.93
2019-05-23T18:22:47.849Z,5.30
2019-05-23T18:25:17.188Z,5.77
2019-05-23T18:27:46.349Z,5.23
2019-05-23T18:30:24.378Z,5.17
2019-05-23T18:32:53.991Z,6.90
2019-05-23T18:35:23.850Z,6.10
2019-05-23T18:37:52.952Z,8.40
2019-05-23T18:40:22.182Z,8.60
2019-05-23T18:42:51.426Z,8.07
2019-05-23T18:45:21.139Z,7.50
2019-05-23T18:47:50.227Z,9.10
2019-05-23T18:50:20.216Z,8.90
2019-05-23T18:52:51.841Z,8.97
2019-05-23T18:55:20.875Z,9.50
2019-05-23T18:57:52.171Z,8.20
2019-05-23T19:00:34.148Z,16.33
2019-05-23T19:03:03.760Z,18.97
2019-05-23T19:05:32.764Z,19.40
2019-05-23T19:08:04.635Z,13.33
2019-05-23T19:10:33.722Z,10.80
2019-05-23T19:13:02.771Z,18.57
2019-05-23T19:15:32.680Z,16.50
2019-05-23T19:18:01.989Z,12.90
2019-05-23T19:20:34.415Z,10.00
2019-05-23T19:23:05.278Z,9.43
2019-05-23T19:25:38.887Z,10.10
2019-05-23T19:28:24.149Z,13.17
2019-05-23T19:31:00.317Z,10.90
2019-05-23T19:33:31.829Z,10.60
2019-05-23T19:36:01.224Z,11.30
2019-05-23T19:38:30.480Z,11.13
2019-05-23T19:40:59.587Z,11.83
2019-05-23T19:43:29.338Z,9.87
2019-05-23T19:45:58.543Z,9.70
2019-05-23T19:48:27.698Z,9.90
2019-05-23T19:50:57.081Z,9.67
2019-05-23T19:53:28.347Z,12.03
2019-05-23T19:55:57.619Z,11.97
2019-05-23T19:58:26.780Z,12.13
2019-05-23T20:00:55.970Z,10.97
2019-05-23T20:03:25.186Z,9.60
2019-05-23T20:05:54.775Z,10.00
2019-05-23T20:08:23.793Z,10.00
2019-05-23T20:10:52.973Z,10.80
2019-05-23T20:13:22.297Z,11.53
2019-05-23T20:15:51.518Z,11.60
2019-05-23T20:18:20.801Z,11.63
2019-05-23T20:20:50.013Z,10.30
2019-05-23T20:23:19.084Z,11.07
2019-05-23T20:25:48.188Z,11.63
2019-05-23T20:28:17.278Z,12.40
2019-05-23T20:30:55.973Z,13.27
2019-05-23T20:33:24.993Z,11.63
2019-05-23T20:35:53.991Z,12.00
2019-05-23T20:38:23.014Z,11.73
2019-05-23T20:40:55.432Z,11.10
2019-05-23T20:43:24.477Z,10.70
2019-05-23T20:45:53.638Z,12.03
2019-05-23T20:48:23.881Z,11.87
2019-05-23T20:50:52.928Z,12.27
2019-05-23T20:53:22.033Z,14.17
2019-05-23T20:55:51.149Z,12.10
2019-05-23T20:58:20.293Z,12.77
2019-05-23T21:00:57.196Z,11.17
2019-05-23T21:03:27.357Z,11.13
2019-05-23T21:05:56.450Z,12.13
2019-05-23T21:08:25.529Z,11.70
2019-05-23T21:10:54.627Z,12.93
2019-05-23T21:13:23.721Z,12.20
2019-05-23T21:15:52.901Z,11.93
2019-05-23T21:18:22.020Z,11.70
2019-05-23T21:20:51.062Z,12.53
2019-05-23T21:23:20.095Z,12.23
2019-05-23T21:25:56.535Z,12.00
2019-05-23T21:28:25.746Z,13.13
2019-05-23T21:30:54.883Z,12.60
2019-05-23T21:33:24.171Z,11.87
2019-05-23T21:35:53.239Z,12.20
2019-05-23T21:38:22.724Z,13.13
2019-05-23T21:40:56.171Z,12.70
2019-05-23T21:43:25.235Z,12.60
2019-05-23T21:45:55.081Z,12.10
2019-05-23T21:48:24.841Z,12.93
2019-05-23T21:51:01.151Z,12.73
2019-05-23T21:53:30.853Z,12.70
2019-05-23T21:56:04.090Z,12.20
2019-05-23T21:58:33.170Z,12.57
2019-05-23T22:01:21.629Z,13.90
2019-05-23T22:04:01.266Z,12.30
2019-05-23T22:06:31.056Z,14.50
2019-05-23T22:09:00.482Z,14.93
2019-05-23T22:11:29.683Z,13.27
2019-05-23T22:13:58.746Z,12.83
2019-05-23T22:16:27.855Z,12.77
2019-05-23T22:18:56.785Z,13.13
2019-05-23T22:21:25.866Z,13.43
2019-05-23T22:23:55.012Z,12.57
2019-05-23T22:26:24.374Z,12.70
2019-05-23T22:28:53.536Z,14.60
2019-05-23T22:31:22.864Z,13.27
2019-05-23T22:33:58.061Z,13.43
2019-05-23T22:36:27.236Z,13.63
2019-05-23T22:38:56.317Z,13.47
2019-05-23T22:41:26.003Z,14.00
2019-05-23T22:43:55.052Z,13.37
2019-05-23T22:46:24.640Z,14.43
2019-05-23T22:48:53.839Z,12.77
2019-05-23T22:51:29.089Z,14.30
2019-05-23T22:53:58.907Z,12.83
2019-05-23T22:56:28.051Z,13.53
2019-05-23T22:58:57.027Z,12.97
2019-05-23T23:01:27.806Z,13.63
2019-05-23T23:03:56.800Z,12.00
2019-05-23T23:06:25.929Z,13.90
2019-05-23T23:08:55.085Z,13.13
2019-05-23T23:11:24.206Z,12.30
2019-05-23T23:13:53.201Z,13.17
2019-05-23T23:16:22.321Z,13.97
2019-05-23T23:18:51.452Z,14.10
2019-05-23T23:21:20.480Z,14.23
2019-05-23T23:23:49.552Z,15.27
2019-05-23T23:26:18.613Z,13.03
2019-05-23T23:28:47.671Z,15.17
2019-05-23T23:31:16.735Z,13.63
2019-05-23T23:33:45.786Z,14.20
2019-05-23T23:36:14.827Z,14.00
2019-05-23T23:38:44.336Z,14.30
2019-05-23T23:41:13.529Z,13.93
2019-05-23T23:43:57.976Z,13.83
2019-05-23T23:46:30.752Z,13.57
2019-05-23T23:49:17.382Z,14.10
2019-05-23T23:52:03.840Z,14.13
2019-05-23T23:54:50.558Z,13.03
2019-05-23T23:57:37.095Z,13.90
